Time;durP1;ratioP1;P1;durP2;ratioP2;P2;SDS_P1;SDS_P2;PMS_P1;PMS_P2;Temp;Humidity;BMP_temperature;BMP_pressure;BME280_temperature;BME280_humidity;BME280_pressure;Samples;Min_cycle;Max_cycle;Signal;HPM_P1;HPM_P2
2022/09/29 00:00:29;;;;;;;;;;;12.40;99.90;;;;;;4228601;28;19996;-63
2022/09/29 00:02:30;;;;;;;;;;;12.40;99.90;;;;;;4227435;28;20360;-64
2022/09/29 00:04:31;;;;;;;;;;;12.40;99.90;;;;;;4222028;28;19913;-61
2022/09/29 00:06:32;;;;;;;;;;;12.40;99.90;;;;;;4225124;28;19908;-61
2022/09/29 00:08:33;;;;;;;;;;;12.30;99.90;;;;;;4227609;28;20406;-61
2022/09/29 00:10:34;;;;;;;;;;;12.30;99.90;;;;;;4227980;28;19908;-61
2022/09/29 00:12:35;;;;;;;;;;;12.30;99.90;;;;;;4227815;28;19912;-62
2022/09/29 00:14:35;;;;;;;;;;;12.30;99.90;;;;;;4228429;28;20307;-61
2022/09/29 00:16:36;;;;;;;;;;;12.30;99.90;;;;;;4227605;28;19912;-61
2022/09/29 00:18:38;;;;;;;;;;;12.20;99.90;;;;;;4228613;28;19912;-63
2022/09/29 00:20:39;;;;;;;;;;;12.20;99.90;;;;;;4229490;28;20321;-61
2022/09/29 00:22:40;;;;;;;;;;;12.10;99.90;;;;;;4230445;28;19923;-62
2022/09/29 00:24:40;;;;;;;;;;;12.10;99.90;;;;;;4230581;28;19912;-62
2022/09/29 00:26:43;;;;;;;;;;;12.10;99.90;;;;;;4231730;28;19912;-62
2022/09/29 00:28:46;;;;;;;;;;;12.10;99.90;;;;;;4230055;28;20028;-62
2022/09/29 00:30:47;;;;;;;;;;;12.10;99.90;;;;;;4231174;28;19916;-61
2022/09/29 00:32:48;;;;;;;;;;;12.10;99.90;;;;;;4230270;28;19914;-62
2022/09/29 00:34:50;;;;;;;;;;;12.10;99.90;;;;;;4231291;28;19915;-61
2022/09/29 00:36:50;;;;;;;;;;;12.10;99.90;;;;;;4230423;28;19912;-61
2022/09/29 00:38:52;;;;;;;;;;;12.10;99.90;;;;;;4230780;28;20023;-61
2022/09/29 00:40:53;;;;;;;;;;;12.20;99.90;;;;;;4230430;28;19916;-61
2022/09/29 00:42:53;;;;;;;;;;;12.20;99.90;;;;;;4230384;28;19923;-61
2022/09/29 00:45:04;;;;;;;;;;;12.20;99.90;;;;;;4231161;28;19911;-62
2022/09/29 00:47:05;;;;;;;;;;;12.20;99.90;;;;;;4230057;28;19912;-61
2022/09/29 00:49:12;;;;;;;;;;;12.20;99.90;;;;;;4231154;28;19957;-61
2022/09/29 00:51:13;;;;;;;;;;;12.20;99.90;;;;;;4230168;28;19938;-61
2022/09/29 00:53:15;;;;;;;;;;;12.20;99.90;;;;;;4231078;28;20347;-61
2022/09/29 00:55:22;;;;;;;;;;;12.20;99.90;;;;;;4228732;27;19945;-62
2022/09/29 00:57:27;;;;;;;;;;;12.20;99.90;;;;;;4230152;28;19919;-61
2022/09/29 00:59:34;;;;;;;;;;;12.20;99.90;;;;;;4229805;28;19912;-62
2022/09/29 01:01:35;;;;;;;;;;;12.20;99.90;;;;;;4230694;28;19911;-61
2022/09/29 01:03:39;;;;;;;;;;;12.20;99.90;;;;;;4229774;28;19912;-62
2022/09/29 01:05:46;;;;;;;;;;;12.10;99.90;;;;;;4231084;28;19912;-62
2022/09/29 01:07:47;;;;;;;;;;;12.10;99.90;;;;;;4229839;28;19907;-62
2022/09/29 01:09:49;;;;;;;;;;;12.10;99.90;;;;;;4230896;28;20363;-61
2022/09/29 01:11:56;;;;;;;;;;;12.00;99.90;;;;;;4229398;28;19916;-63
2022/09/29 01:14:02;;;;;;;;;;;12.00;99.90;;;;;;4230775;27;19915;-62
2022/09/29 01:16:03;;;;;;;;;;;12.00;99.90;;;;;;4212784;28;19938;-63
2022/09/29 01:18:05;;;;;;;;;;;12.00;99.90;;;;;;4222385;28;19911;-60
2022/09/29 01:20:12;;;;;;;;;;;12.00;99.90;;;;;;4229321;28;20309;-62
2022/09/29 01:22:15;;;;;;;;;;;11.90;99.90;;;;;;4229361;28;19969;-62
2022/09/29 01:24:19;;;;;;;;;;;11.90;99.90;;;;;;4229589;28;20012;-62
2022/09/29 01:26:45;;;;;;;;;;;11.80;99.90;;;;;;4229686;28;20334;-62
2022/09/29 01:28:46;;;;;;;;;;;11.80;99.90;;;;;;4229609;28;19912;-63
2022/09/29 01:30:50;;;;;;;;;;;11.70;99.90;;;;;;4229444;28;19995;-62
2022/09/29 01:32:50;;;;;;;;;;;11.60;99.90;;;;;;4229762;28;20351;-62
2022/09/29 01:34:54;;;;;;;;;;;11.60;99.90;;;;;;4229765;28;20000;-63
2022/09/29 01:36:55;;;;;;;;;;;11.50;99.90;;;;;;4229887;28;19912;-63
2022/09/29 01:39:12;;;;;;;;;;;11.50;99.90;;;;;;4229269;28;20002;-61
2022/09/29 01:41:17;;;;;;;;;;;11.50;99.90;;;;;;4229974;28;19912;-64
2022/09/29 01:43:32;;;;;;;;;;;11.40;99.90;;;;;;4229552;28;20272;-61
2022/09/29 01:45:34;;;;;;;;;;;11.40;99.90;;;;;;4229226;28;19964;-63
2022/09/29 01:47:40;;;;;;;;;;;11.40;99.90;;;;;;4229081;28;19919;-62
2022/09/29 01:49:45;;;;;;;;;;;11.40;99.90;;;;;;4230013;28;19912;-61
2022/09/29 01:52:01;;;;;;;;;;;11.40;99.90;;;;;;4228553;28;19964;-61
2022/09/29 01:54:05;;;;;;;;;;;11.40;99.90;;;;;;4229944;28;19907;-63
2022/09/29 01:56:10;;;;;;;;;;;11.40;99.90;;;;;;4228977;28;19956;-62
2022/09/29 01:58:31;;;;;;;;;;;11.30;99.90;;;;;;4229706;28;19927;-61
2022/09/29 02:00:37;;;;;;;;;;;11.30;99.90;;;;;;4228292;28;19965;-62
2022/09/29 02:02:46;;;;;;;;;;;11.30;99.90;;;;;;4229771;28;19919;-62
2022/09/29 02:04:52;;;;;;;;;;;11.30;99.90;;;;;;4228708;28;19916;-62
2022/09/29 02:06:56;;;;;;;;;;;11.30;99.90;;;;;;4229788;28;20325;-62
2022/09/29 02:08:59;;;;;;;;;;;11.30;99.90;;;;;;4228648;28;19911;-61
2022/09/29 02:11:07;;;;;;;;;;;11.30;99.90;;;;;;4229504;28;20325;-61
2022/09/29 02:13:09;;;;;;;;;;;11.30;99.90;;;;;;4229053;28;19982;-60
2022/09/29 02:15:12;;;;;;;;;;;11.30;99.90;;;;;;4229749;28;20426;-62
2022/09/29 02:17:34;;;;;;;;;;;11.30;99.90;;;;;;4228210;28;19919;-61
2022/09/29 02:19:36;;;;;;;;;;;11.30;99.90;;;;;;4229310;28;19961;-61
2022/09/29 02:21:36;;;;;;;;;;;11.40;99.90;;;;;;4228653;28;19961;-62
2022/09/29 02:23:37;;;;;;;;;;;11.40;99.90;;;;;;4238391;27;19977;-61
2022/09/29 02:25:39;;;;;;;;;;;11.40;99.90;;;;;;4227232;28;19931;-62
2022/09/29 02:27:40;;;;;;;;;;;11.40;99.90;;;;;;4229579;28;19957;-62
2022/09/29 02:29:42;;;;;;;;;;;11.40;99.90;;;;;;4226300;28;19976;-61
2022/09/29 02:31:44;;;;;;;;;;;11.50;99.90;;;;;;4229454;28;19907;-63
2022/09/29 02:33:44;;;;;;;;;;;11.40;99.90;;;;;;4228310;28;19961;-61
2022/09/29 02:35:53;;;;;;;;;;;11.50;99.90;;;;;;4228807;28;20324;-63
2022/09/29 02:38:00;;;;;;;;;;;11.50;99.90;;;;;;4228526;28;20317;-61
2022/09/29 02:40:11;;;;;;;;;;;11.50;99.90;;;;;;4228766;28;19908;-64
2022/09/29 02:42:12;;;;;;;;;;;11.50;99.90;;;;;;4228145;28;19964;-64
2022/09/29 02:44:21;;;;;;;;;;;11.50;99.90;;;;;;4227610;28;19916;-62
2022/09/29 02:46:33;;;;;;;;;;;11.60;99.90;;;;;;4228569;28;19991;-61
2022/09/29 02:48:42;;;;;;;;;;;11.60;99.90;;;;;;4228341;28;20314;-61
2022/09/29 02:50:53;;;;;;;;;;;11.60;99.90;;;;;;4228540;28;19911;-62
2022/09/29 02:53:03;;;;;;;;;;;11.70;99.90;;;;;;4228155;28;19960;-62
2022/09/29 02:55:10;;;;;;;;;;;11.70;99.90;;;;;;4227878;28;19920;-62
2022/09/29 02:57:23;;;;;;;;;;;11.70;99.90;;;;;;4227933;28;19915;-63
2022/09/29 02:59:35;;;;;;;;;;;11.70;99.90;;;;;;4227958;28;19923;-63
2022/09/29 03:01:45;;;;;;;;;;;11.70;99.90;;;;;;4228564;28;20356;-63
2022/09/29 03:03:46;;;;;;;;;;;11.70;99.90;;;;;;4227593;28;19919;-62
2022/09/29 03:05:47;;;;;;;;;;;11.80;99.90;;;;;;4228607;27;20368;-64
2022/09/29 03:07:48;;;;;;;;;;;11.70;99.90;;;;;;4228547;28;20029;-63
2022/09/29 03:09:49;;;;;;;;;;;11.80;99.90;;;;;;4228058;28;19912;-63
2022/09/29 03:11:50;;;;;;;;;;;11.80;99.90;;;;;;4228934;28;20738;-63
2022/09/29 03:13:51;;;;;;;;;;;11.80;99.90;;;;;;4228193;28;19941;-63
2022/09/29 03:15:51;;;;;;;;;;;11.80;99.90;;;;;;4228814;28;19916;-63
2022/09/29 03:17:59;;;;;;;;;;;11.80;99.90;;;;;;4227706;28;19918;-63
2022/09/29 03:20:00;;;;;;;;;;;11.70;99.90;;;;;;4228443;28;19920;-63
2022/09/29 03:22:02;;;;;;;;;;;11.70;99.90;;;;;;4227315;28;19945;-61
2022/09/29 03:24:03;;;;;;;;;;;11.70;99.90;;;;;;4228611;28;19911;-62
2022/09/29 03:26:04;;;;;;;;;;;11.70;99.90;;;;;;4226806;28;19911;-63
2022/09/29 03:28:05;;;;;;;;;;;11.70;99.90;;;;;;4228983;28;19919;-63
2022/09/29 03:30:06;;;;;;;;;;;11.60;99.90;;;;;;4227738;28;19958;-64
2022/09/29 03:32:07;;;;;;;;;;;11.50;99.90;;;;;;4228805;28;19961;-63
2022/09/29 03:34:08;;;;;;;;;;;11.50;99.90;;;;;;4227700;28;19916;-62
2022/09/29 03:36:10;;;;;;;;;;;11.50;99.90;;;;;;4228151;28;20378;-62
2022/09/29 03:38:11;;;;;;;;;;;11.50;99.90;;;;;;4228109;28;19908;-63
2022/09/29 03:40:12;;;;;;;;;;;11.50;99.90;;;;;;4227632;28;19908;-62
2022/09/29 03:42:13;;;;;;;;;;;11.40;99.90;;;;;;4227776;28;19951;-63
2022/09/29 03:44:14;;;;;;;;;;;11.40;99.90;;;;;;4230505;28;20313;-63
2022/09/29 03:46:15;;;;;;;;;;;11.40;99.90;;;;;;4228390;28;20307;-62
2022/09/29 03:48:17;;;;;;;;;;;11.40;99.90;;;;;;4227421;28;19943;-66
2022/09/29 03:50:18;;;;;;;;;;;11.40;99.90;;;;;;4228560;28;19925;-66
2022/09/29 03:52:19;;;;;;;;;;;11.40;99.90;;;;;;4227202;28;19915;-64
2022/09/29 03:54:19;;;;;;;;;;;11.40;99.90;;;;;;4227722;28;20331;-64
2022/09/29 03:56:21;;;;;;;;;;;11.40;99.90;;;;;;4230757;28;20434;-63
2022/09/29 03:58:21;;;;;;;;;;;11.40;99.90;;;;;;4231658;28;20341;-65
2022/09/29 04:00:22;;;;;;;;;;;11.40;99.90;;;;;;4229714;28;20014;-64
2022/09/29 04:02:23;;;;;;;;;;;11.40;99.90;;;;;;4230919;28;19964;-67
2022/09/29 04:04:24;;;;;;;;;;;11.30;99.90;;;;;;4230401;27;20329;-65
2022/09/29 04:06:25;;;;;;;;;;;11.30;99.90;;;;;;4230727;28;19912;-64
2022/09/29 04:08:26;;;;;;;;;;;11.20;99.90;;;;;;4230794;28;19951;-62
2022/09/29 04:10:27;;;;;;;;;;;11.20;99.90;;;;;;4230671;28;19908;-62
2022/09/29 04:12:28;;;;;;;;;;;11.20;99.90;;;;;;4231258;28;19908;-64
2022/09/29 04:14:29;;;;;;;;;;;11.10;99.90;;;;;;4230446;28;19908;-64
2022/09/29 04:16:30;;;;;;;;;;;11.00;99.90;;;;;;4230876;28;19912;-62
2022/09/29 04:18:31;;;;;;;;;;;11.10;99.90;;;;;;4229391;28;19973;-63
2022/09/29 04:20:32;;;;;;;;;;;11.00;99.90;;;;;;4230468;28;19919;-63
2022/09/29 04:22:33;;;;;;;;;;;11.00;99.90;;;;;;4243168;27;20425;-64
2022/09/29 04:24:34;;;;;;;;;;;10.90;99.90;;;;;;4230815;28;19912;-60
2022/09/29 04:26:35;;;;;;;;;;;11.00;99.90;;;;;;4228303;28;19923;-58
2022/09/29 04:28:36;;;;;;;;;;;11.00;99.90;;;;;;4221014;28;19912;-61
2022/09/29 04:30:37;;;;;;;;;;;11.00;99.90;;;;;;4212656;28;19912;-61
2022/09/29 04:32:38;;;;;;;;;;;11.00;99.90;;;;;;4217853;28;19915;-61
2022/09/29 04:34:39;;;;;;;;;;;11.00;99.90;;;;;;4229524;28;19908;-62
2022/09/29 04:36:40;;;;;;;;;;;11.00;99.90;;;;;;4229890;27;19915;-63
2022/09/29 04:38:41;;;;;;;;;;;11.00;99.90;;;;;;4229583;28;19942;-62
2022/09/29 04:40:41;;;;;;;;;;;11.00;99.90;;;;;;4230319;28;19934;-62
2022/09/29 04:42:42;;;;;;;;;;;11.10;99.90;;;;;;4230901;27;19923;-62
2022/09/29 04:44:43;;;;;;;;;;;11.10;99.90;;;;;;4229897;28;19919;-61
2022/09/29 04:46:44;;;;;;;;;;;11.10;99.90;;;;;;4230190;27;19916;-61
2022/09/29 04:48:45;;;;;;;;;;;11.10;99.90;;;;;;4229038;28;19962;-65
2022/09/29 04:50:47;;;;;;;;;;;11.20;99.90;;;;;;4230925;28;19916;-63
2022/09/29 04:52:48;;;;;;;;;;;11.10;99.90;;;;;;4229097;27;19908;-62
2022/09/29 04:54:49;;;;;;;;;;;11.10;99.90;;;;;;4230473;28;20523;-64
2022/09/29 04:56:50;;;;;;;;;;;11.10;99.90;;;;;;4229238;28;19908;-62
2022/09/29 04:58:51;;;;;;;;;;;11.10;99.90;;;;;;4228657;28;19969;-63
2022/09/29 05:00:52;;;;;;;;;;;11.10;99.90;;;;;;4229426;27;19937;-62
2022/09/29 05:02:52;;;;;;;;;;;11.10;99.90;;;;;;4229237;28;19968;-62
2022/09/29 05:04:53;;;;;;;;;;;11.20;99.90;;;;;;4228990;28;20279;-62
2022/09/29 05:06:54;;;;;;;;;;;11.30;99.90;;;;;;4228819;28;19918;-64
2022/09/29 05:08:55;;;;;;;;;;;11.50;99.90;;;;;;4229978;28;20688;-62
2022/09/29 05:10:56;;;;;;;;;;;11.70;99.90;;;;;;4229310;28;20481;-64
2022/09/29 05:12:57;;;;;;;;;;;12.00;99.90;;;;;;4230378;28;19912;-62
2022/09/29 05:14:58;;;;;;;;;;;12.10;99.90;;;;;;4229302;28;19912;-62
2022/09/29 05:16:59;;;;;;;;;;;12.10;99.90;;;;;;4230285;28;20348;-60
2022/09/29 05:19:00;;;;;;;;;;;12.00;99.90;;;;;;4228818;28;19931;-63
2022/09/29 05:21:03;;;;;;;;;;;11.90;99.90;;;;;;4229694;28;19911;-63
2022/09/29 05:23:08;;;;;;;;;;;11.90;99.90;;;;;;4229002;28;20318;-62
2022/09/29 05:25:10;;;;;;;;;;;11.90;99.90;;;;;;4230294;28;20302;-63
2022/09/29 05:27:11;;;;;;;;;;;11.80;99.90;;;;;;4229115;28;19965;-63
2022/09/29 05:29:12;;;;;;;;;;;11.80;99.90;;;;;;4245278;27;20320;-62
2022/09/29 05:31:13;;;;;;;;;;;12.00;99.90;;;;;;4228578;28;19947;-63
2022/09/29 05:33:14;;;;;;;;;;;12.10;99.90;;;;;;4244918;27;19989;-66
2022/09/29 05:35:15;;;;;;;;;;;12.20;99.90;;;;;;4229189;28;20291;-64
2022/09/29 05:37:17;;;;;;;;;;;12.40;99.90;;;;;;4229313;28;19908;-61
2022/09/29 05:39:19;;;;;;;;;;;12.50;99.90;;;;;;4229242;28;19961;-64
2022/09/29 05:41:23;;;;;;;;;;;12.60;99.90;;;;;;4229009;28;20356;-63
2022/09/29 05:43:24;;;;;;;;;;;12.80;99.90;;;;;;4245288;27;19915;-62
2022/09/29 05:45:25;;;;;;;;;;;12.80;99.90;;;;;;4228454;28;19920;-61
2022/09/29 05:47:26;;;;;;;;;;;12.90;99.90;;;;;;4227909;28;19957;-63
2022/09/29 05:49:28;;;;;;;;;;;12.70;99.90;;;;;;4228408;28;19934;-63
2022/09/29 05:51:29;;;;;;;;;;;12.70;99.90;;;;;;4229251;28;19908;-62
2022/09/29 05:53:29;;;;;;;;;;;12.60;99.90;;;;;;4228417;28;19908;-61
2022/09/29 05:55:30;;;;;;;;;;;12.80;99.90;;;;;;4229301;28;19976;-61
2022/09/29 05:57:31;;;;;;;;;;;13.00;99.90;;;;;;4228083;28;19920;-63
2022/09/29 05:59:32;;;;;;;;;;;13.30;99.90;;;;;;4229499;28;19912;-62
2022/09/29 06:01:33;;;;;;;;;;;13.50;99.90;;;;;;4228218;28;19907;-63
2022/09/29 06:03:34;;;;;;;;;;;13.90;99.90;;;;;;4227671;28;19920;-62
2022/09/29 06:05:39;;;;;;;;;;;14.00;99.90;;;;;;4228498;28;20371;-62
2022/09/29 06:07:40;;;;;;;;;;;14.00;99.90;;;;;;4228387;28;19915;-62
2022/09/29 06:09:41;;;;;;;;;;;13.90;99.90;;;;;;4228579;28;19928;-62
2022/09/29 06:11:42;;;;;;;;;;;13.80;99.90;;;;;;4228591;28;19912;-61
2022/09/29 06:13:44;;;;;;;;;;;13.80;99.90;;;;;;4229302;28;19919;-62
2022/09/29 06:15:45;;;;;;;;;;;13.80;99.90;;;;;;4228201;28;19908;-63
2022/09/29 06:17:46;;;;;;;;;;;13.80;99.90;;;;;;4229010;28;20357;-62
2022/09/29 06:19:47;;;;;;;;;;;13.90;99.90;;;;;;4228111;28;19953;-63
2022/09/29 06:21:48;;;;;;;;;;;13.90;99.90;;;;;;4229274;28;19908;-63
2022/09/29 06:23:50;;;;;;;;;;;13.90;99.90;;;;;;4226724;28;21913;-63
2022/09/29 06:25:54;;;;;;;;;;;14.00;99.90;;;;;;4229194;28;19957;-63
2022/09/29 06:27:55;;;;;;;;;;;14.00;99.90;;;;;;4228143;28;19953;-63
2022/09/29 06:29:56;;;;;;;;;;;14.10;99.90;;;;;;4229318;28;19908;-62
2022/09/29 06:31:57;;;;;;;;;;;14.20;99.90;;;;;;4228154;28;19908;-63
2022/09/29 06:33:59;;;;;;;;;;;14.40;99.90;;;;;;4228939;28;19914;-62
2022/09/29 06:38:21;;;;;;;;;;;14.50;99.90;;;;;;4228933;28;20321;-62
2022/09/29 06:40:26;;;;;;;;;;;14.50;99.90;;;;;;4227804;28;19908;-62
2022/09/29 06:42:26;;;;;;;;;;;14.60;99.90;;;;;;4228835;28;19912;-62
2022/09/29 06:44:29;;;;;;;;;;;14.70;99.90;;;;;;4228285;28;20395;-64
2022/09/29 06:46:30;;;;;;;;;;;14.80;99.90;;;;;;4228376;28;19957;-63
2022/09/29 06:48:31;;;;;;;;;;;14.90;99.90;;;;;;4228030;28;19904;-62
2022/09/29 06:50:33;;;;;;;;;;;15.20;99.90;;;;;;4228146;28;20011;-63
2022/09/29 06:52:34;;;;;;;;;;;15.30;99.90;;;;;;4228527;28;19973;-64
2022/09/29 06:54:35;;;;;;;;;;;15.60;99.90;;;;;;4227537;28;19915;-65
2022/09/29 06:56:36;;;;;;;;;;;15.70;99.90;;;;;;4228755;28;19923;-63
2022/09/29 06:58:37;;;;;;;;;;;15.90;99.90;;;;;;4227516;28;20425;-64
2022/09/29 07:00:38;;;;;;;;;;;16.20;99.90;;;;;;4228288;28;19916;-65
2022/09/29 07:02:43;;;;;;;;;;;16.10;99.90;;;;;;4227159;28;20272;-67
2022/09/29 07:04:46;;;;;;;;;;;16.20;99.90;;;;;;4228489;28;20432;-67
2022/09/29 07:06:48;;;;;;;;;;;16.10;99.90;;;;;;4227446;28;19980;-66
2022/09/29 07:08:53;;;;;;;;;;;16.20;99.90;;;;;;4228514;28;19907;-63
2022/09/29 07:10:54;;;;;;;;;;;16.30;99.90;;;;;;4227504;28;19912;-64
2022/09/29 07:12:55;;;;;;;;;;;16.40;99.90;;;;;;4228602;28;19907;-65
2022/09/29 07:14:56;;;;;;;;;;;16.50;99.90;;;;;;4227586;28;19911;-66
2022/09/29 07:16:58;;;;;;;;;;;16.50;99.90;;;;;;4228733;28;20348;-66
2022/09/29 07:18:58;;;;;;;;;;;16.50;99.90;;;;;;4227655;28;19907;-66
2022/09/29 07:21:00;;;;;;;;;;;16.50;99.90;;;;;;4227861;28;20253;-64
2022/09/29 07:23:00;;;;;;;;;;;16.30;99.90;;;;;;4227940;28;19977;-65
2022/09/29 07:25:01;;;;;;;;;;;16.20;99.90;;;;;;4227714;28;19908;-66
2022/09/29 07:27:02;;;;;;;;;;;16.20;99.90;;;;;;4228319;28;19907;-65
2022/09/29 07:29:03;;;;;;;;;;;16.20;99.90;;;;;;4227574;28;20371;-67
2022/09/29 07:31:06;;;;;;;;;;;16.20;99.90;;;;;;4231955;28;19912;-65
2022/09/29 07:33:07;;;;;;;;;;;16.40;99.90;;;;;;4230558;28;19908;-65
2022/09/29 07:35:08;;;;;;;;;;;16.50;99.90;;;;;;4232019;28;19931;-67
2022/09/29 07:37:09;;;;;;;;;;;16.60;99.90;;;;;;4230832;28;19961;-67
2022/09/29 07:39:10;;;;;;;;;;;16.70;99.90;;;;;;4231953;28;19908;-64
2022/09/29 07:41:11;;;;;;;;;;;16.70;99.90;;;;;;4230865;28;20303;-63
2022/09/29 07:43:12;;;;;;;;;;;16.70;99.90;;;;;;4232021;28;19908;-66
2022/09/29 07:45:13;;;;;;;;;;;16.80;99.90;;;;;;4231054;28;20270;-66
2022/09/29 07:47:14;;;;;;;;;;;16.80;99.90;;;;;;4230034;28;19916;-65
2022/09/29 07:49:15;;;;;;;;;;;16.70;99.90;;;;;;4230571;28;20330;-63
2022/09/29 07:51:17;;;;;;;;;;;16.80;99.90;;;;;;4231118;28;19915;-63
2022/09/29 07:53:18;;;;;;;;;;;16.70;99.90;;;;;;4230913;28;20344;-64
2022/09/29 07:55:20;;;;;;;;;;;16.80;99.90;;;;;;4230731;28;19908;-64
2022/09/29 07:57:22;;;;;;;;;;;16.70;99.90;;;;;;4231197;28;19969;-64
2022/09/29 07:59:22;;;;;;;;;;;16.90;99.90;;;;;;4230310;28;20252;-63
2022/09/29 08:01:24;;;;;;;;;;;17.10;99.90;;;;;;4231421;28;19961;-63
2022/09/29 08:03:25;;;;;;;;;;;17.10;99.90;;;;;;4230029;28;19920;-63
2022/09/29 08:05:26;;;;;;;;;;;17.20;99.90;;;;;;4231411;28;19908;-63
2022/09/29 08:07:27;;;;;;;;;;;17.20;99.90;;;;;;4230393;28;19908;-63
2022/09/29 08:09:28;;;;;;;;;;;17.10;99.90;;;;;;4231306;28;20325;-63
2022/09/29 08:11:30;;;;;;;;;;;17.10;99.90;;;;;;4230117;28;19911;-63
2022/09/29 08:13:32;;;;;;;;;;;17.20;99.90;;;;;;4231095;28;20409;-63
2022/09/29 08:15:33;;;;;;;;;;;17.30;99.90;;;;;;4230102;28;19920;-62
2022/09/29 08:17:34;;;;;;;;;;;17.30;99.90;;;;;;4230561;28;20322;-62
2022/09/29 08:19:35;;;;;;;;;;;17.20;99.90;;;;;;4229928;28;19908;-62
2022/09/29 08:21:37;;;;;;;;;;;17.20;99.90;;;;;;4230572;28;19957;-62
2022/09/29 08:23:39;;;;;;;;;;;17.20;99.90;;;;;;4230524;28;19923;-62
2022/09/29 08:25:39;;;;;;;;;;;17.10;99.90;;;;;;4230460;28;19969;-61
2022/09/29 08:27:40;;;;;;;;;;;17.10;99.90;;;;;;4230734;28;19907;-63
2022/09/29 08:29:41;;;;;;;;;;;17.10;99.90;;;;;;4229913;28;19952;-63
2022/09/29 08:31:43;;;;;;;;;;;17.20;99.90;;;;;;4231060;28;19911;-62
2022/09/29 08:33:44;;;;;;;;;;;17.10;99.90;;;;;;4229731;28;19973;-61
2022/09/29 08:35:45;;;;;;;;;;;17.20;99.90;;;;;;4230778;28;20336;-63
2022/09/29 08:37:46;;;;;;;;;;;17.20;99.90;;;;;;4229703;28;20005;-62
2022/09/29 08:39:47;;;;;;;;;;;17.20;99.90;;;;;;4230866;28;19937;-62
2022/09/29 08:42:00;;;;;;;;;;;17.20;99.90;;;;;;4229638;28;19911;-63
2022/09/29 08:44:21;;;;;;;;;;;17.20;99.90;;;;;;4231149;28;20435;-62
2022/09/29 08:46:25;;;;;;;;;;;17.20;99.90;;;;;;4229235;28;19965;-62
2022/09/29 08:48:28;;;;;;;;;;;17.20;99.90;;;;;;4230507;28;19965;-64
2022/09/29 08:50:49;;;;;;;;;;;17.20;99.90;;;;;;4229351;28;19953;-63
2022/09/29 08:52:53;;;;;;;;;;;17.20;99.90;;;;;;4230112;28;20019;-63
2022/09/29 08:54:56;;;;;;;;;;;17.10;99.90;;;;;;4229248;28;19912;-63
2022/09/29 08:56:58;;;;;;;;;;;17.10;99.90;;;;;;4229909;28;19912;-64
2022/09/29 08:58:59;;;;;;;;;;;17.10;99.90;;;;;;4228946;28;19945;-62
2022/09/29 09:01:03;;;;;;;;;;;17.10;99.90;;;;;;4230075;28;19921;-62
2022/09/29 09:03:04;;;;;;;;;;;17.10;99.90;;;;;;4228918;28;19941;-62
2022/09/29 09:05:11;;;;;;;;;;;17.10;99.90;;;;;;4230205;28;19915;-62
2022/09/29 09:07:24;;;;;;;;;;;17.10;99.90;;;;;;4229449;28;19980;-62
2022/09/29 09:09:25;;;;;;;;;;;17.20;99.90;;;;;;4229851;28;19937;-61
2022/09/29 09:11:32;;;;;;;;;;;17.20;99.90;;;;;;4229083;28;19911;-62
2022/09/29 09:13:45;;;;;;;;;;;17.20;99.90;;;;;;4229389;28;19912;-62
2022/09/29 09:15:46;;;;;;;;;;;17.20;99.90;;;;;;4228968;28;19907;-63
2022/09/29 09:17:48;;;;;;;;;;;17.20;99.90;;;;;;4229510;28;19987;-62
2022/09/29 09:19:49;;;;;;;;;;;17.30;99.90;;;;;;4229071;28;19988;-63
2022/09/29 09:21:54;;;;;;;;;;;17.30;99.90;;;;;;4229332;28;19908;-63
2022/09/29 09:23:56;;;;;;;;;;;17.30;99.90;;;;;;4229718;28;19915;-62
2022/09/29 09:25:59;;;;;;;;;;;17.30;99.90;;;;;;4228909;28;19965;-62
2022/09/29 09:28:18;;;;;;;;;;;17.30;99.90;;;;;;4229781;28;19957;-62
2022/09/29 09:30:19;;;;;;;;;;;17.30;99.90;;;;;;4229105;28;19953;-62
2022/09/29 09:32:26;;;;;;;;;;;17.30;99.90;;;;;;4229909;28;19957;-63
2022/09/29 09:34:27;;;;;;;;;;;17.40;99.90;;;;;;4228594;28;19911;-62
2022/09/29 09:36:32;;;;;;;;;;;17.50;99.90;;;;;;4229794;28;19912;-62
2022/09/29 09:38:53;;;;;;;;;;;17.50;99.90;;;;;;4228533;28;19916;-64
2022/09/29 09:40:56;;;;;;;;;;;17.50;99.90;;;;;;4229568;28;19912;-63
2022/09/29 09:42:56;;;;;;;;;;;17.50;99.90;;;;;;4228297;28;19908;-62
2022/09/29 09:45:13;;;;;;;;;;;17.50;99.90;;;;;;4229968;28;19930;-62
2022/09/29 09:47:22;;;;;;;;;;;17.50;99.90;;;;;;4228803;28;19916;-62
2022/09/29 09:49:30;;;;;;;;;;;17.40;99.90;;;;;;4229686;28;19961;-63
2022/09/29 09:51:34;;;;;;;;;;;17.40;99.90;;;;;;4228309;28;19941;-62
2022/09/29 09:53:37;;;;;;;;;;;17.40;99.90;;;;;;4229247;28;19908;-61
2022/09/29 09:55:38;;;;;;;;;;;17.40;99.90;;;;;;4228301;28;19969;-62
2022/09/29 09:57:51;;;;;;;;;;;17.40;99.90;;;;;;4229346;27;19972;-62
2022/09/29 10:00:03;;;;;;;;;;;17.40;99.90;;;;;;4228226;28;19912;-62
2022/09/29 10:02:04;;;;;;;;;;;17.30;99.90;;;;;;4229644;28;19988;-63
2022/09/29 10:04:05;;;;;;;;;;;17.40;99.90;;;;;;4228106;28;20045;-62
2022/09/29 10:06:07;;;;;;;;;;;17.40;99.90;;;;;;4229488;28;19913;-63
2022/09/29 10:08:13;;;;;;;;;;;17.40;99.90;;;;;;4228478;28;19957;-63
2022/09/29 10:10:16;;;;;;;;;;;17.40;99.90;;;;;;4229506;28;20434;-61
2022/09/29 10:12:18;;;;;;;;;;;17.40;99.90;;;;;;4228115;28;19908;-63
2022/09/29 10:14:24;;;;;;;;;;;17.40;99.90;;;;;;4229565;28;20417;-63
2022/09/29 10:16:28;;;;;;;;;;;17.30;99.90;;;;;;4228038;28;19919;-63
2022/09/29 10:18:37;;;;;;;;;;;17.30;99.90;;;;;;4228231;27;19915;-63
2022/09/29 10:20:40;;;;;;;;;;;17.30;99.90;;;;;;4228278;28;19912;-62
2022/09/29 10:22:41;;;;;;;;;;;17.30;99.90;;;;;;4228647;28;19912;-62
2022/09/29 10:24:42;;;;;;;;;;;17.30;99.90;;;;;;4228139;28;19916;-63
2022/09/29 10:26:44;;;;;;;;;;;17.20;99.90;;;;;;4228047;28;19966;-62
2022/09/29 10:29:00;;;;;;;;;;;17.10;99.90;;;;;;4228680;28;20423;-63
2022/09/29 10:31:01;;;;;;;;;;;17.10;99.90;;;;;;4228399;28;19916;-64
2022/09/29 10:33:03;;;;;;;;;;;17.00;99.90;;;;;;4228787;28;20023;-63
2022/09/29 10:35:08;;;;;;;;;;;17.00;99.90;;;;;;4227900;28;19908;-63
2022/09/29 10:37:25;;;;;;;;;;;16.90;99.90;;;;;;4228804;28;19907;-63
2022/09/29 10:39:47;;;;;;;;;;;16.80;99.90;;;;;;4227816;28;19941;-62
2022/09/29 10:41:53;;;;;;;;;;;16.80;99.90;;;;;;4228169;28;19916;-63
2022/09/29 10:43:54;;;;;;;;;;;16.70;99.90;;;;;;4227911;28;19924;-63
2022/09/29 10:45:57;;;;;;;;;;;16.60;99.90;;;;;;4228851;28;19955;-61
2022/09/29 10:47:59;;;;;;;;;;;16.50;99.90;;;;;;4227650;28;19911;-63
2022/09/29 10:50:07;;;;;;;;;;;16.50;99.90;;;;;;4228885;28;19915;-62
2022/09/29 10:52:20;;;;;;;;;;;16.40;99.90;;;;;;4227586;28;19916;-62
2022/09/29 10:54:24;;;;;;;;;;;16.40;99.90;;;;;;4228900;28;19937;-62
2022/09/29 10:56:28;;;;;;;;;;;16.30;99.90;;;;;;4242898;27;19936;-62
2022/09/29 10:58:56;;;;;;;;;;;16.30;99.90;;;;;;4228651;28;19969;-62
2022/09/29 11:01:08;;;;;;;;;;;16.30;99.90;;;;;;4223779;28;20322;-62
2022/09/29 11:03:18;;;;;;;;;;;16.30;99.90;;;;;;4228442;28;19957;-64
2022/09/29 11:05:22;;;;;;;;;;;16.30;99.90;;;;;;4226884;28;20504;-62
2022/09/29 11:07:23;;;;;;;;;;;16.20;99.90;;;;;;4228337;28;19953;-62
2022/09/29 11:09:26;;;;;;;;;;;16.20;99.90;;;;;;4227195;28;19953;-61
2022/09/29 11:11:30;;;;;;;;;;;16.20;99.90;;;;;;4228294;28;19912;-62
2022/09/29 11:13:34;;;;;;;;;;;16.20;99.90;;;;;;4227343;28;20372;-62
2022/09/29 11:15:39;;;;;;;;;;;16.20;99.90;;;;;;4228916;28;19911;-62
2022/09/29 11:17:47;;;;;;;;;;;16.10;99.90;;;;;;4227131;28;19908;-61
2022/09/29 11:19:50;;;;;;;;;;;16.10;99.90;;;;;;4226893;28;19911;-62
2022/09/29 11:21:56;;;;;;;;;;;16.10;99.90;;;;;;4226856;28;20261;-61
2022/09/29 11:24:09;;;;;;;;;;;16.10;99.90;;;;;;4228143;28;20364;-63
2022/09/29 11:26:19;;;;;;;;;;;16.20;99.90;;;;;;4226751;28;19912;-62
2022/09/29 11:28:38;;;;;;;;;;;16.20;99.90;;;;;;4227941;28;20016;-63
2022/09/29 11:30:41;;;;;;;;;;;16.20;99.90;;;;;;4227032;28;19956;-63
2022/09/29 11:32:49;;;;;;;;;;;16.20;99.90;;;;;;4243290;28;19949;-63
2022/09/29 11:35:04;;;;;;;;;;;16.10;99.90;;;;;;4227107;28;19912;-62
2022/09/29 11:37:20;;;;;;;;;;;16.20;99.90;;;;;;4228390;28;19912;-64
2022/09/29 11:39:40;;;;;;;;;;;16.20;99.90;;;;;;4227219;28;19961;-64
2022/09/29 11:41:52;;;;;;;;;;;16.20;99.90;;;;;;4228027;28;20355;-62
2022/09/29 11:44:03;;;;;;;;;;;16.30;99.90;;;;;;4226884;28;19907;-62
2022/09/29 11:46:14;;;;;;;;;;;16.40;99.90;;;;;;4227983;28;19956;-63
2022/09/29 11:48:22;;;;;;;;;;;16.40;99.90;;;;;;4226713;28;19907;-61
2022/09/29 11:50:30;;;;;;;;;;;16.50;99.90;;;;;;4228095;28;19908;-62
2022/09/29 11:52:34;;;;;;;;;;;16.60;99.90;;;;;;4241998;28;19908;-62
2022/09/29 11:54:45;;;;;;;;;;;16.60;99.90;;;;;;4227888;28;19956;-63
2022/09/29 11:56:50;;;;;;;;;;;16.60;99.90;;;;;;4226350;28;19945;-62
2022/09/29 11:59:06;;;;;;;;;;;16.70;99.90;;;;;;4227564;28;19927;-63
2022/09/29 12:01:07;;;;;;;;;;;16.70;99.90;;;;;;4226671;28;20421;-61